sensor_id;sensor_type;location;lat;lon;timestamp;P1;durP1;ratioP1;P2;durP2;ratioP2
83840;SDS011;73868;52.172;10.668;2024-03-08T00:01:47;29.03;;;19.90;;
83840;SDS011;73868;52.172;10.668;2024-03-08T00:04:13;29.67;;;19.77;;
83840;SDS011;73868;52.172;10.668;2024-03-08T00:06:40;28.43;;;20.00;;
83840;SDS011;73868;52.172;10.668;2024-03-08T00:09:06;28.57;;;18.77;;
83840;SDS011;73868;52.172;10.668;2024-03-08T00:11:33;31.33;;;20.40;;
83840;SDS011;73868;52.172;10.668;2024-03-08T00:13:59;32.20;;;21.17;;
83840;SDS011;73868;52.172;10.668;2024-03-08T00:16:25;34.10;;;21.47;;
83840;SDS011;73868;52.172;10.668;2024-03-08T00:18:51;29.60;;;19.37;;
83840;SDS011;73868;52.172;10.668;2024-03-08T00:21:16;29.40;;;19.83;;
83840;SDS011;73868;52.172;10.668;2024-03-08T00:23:42;29.53;;;20.10;;
83840;SDS011;73868;52.172;10.668;2024-03-08T00:26:08;33.10;;;20.60;;
83840;SDS011;73868;52.172;10.668;2024-03-08T00:28:33;35.23;;;21.87;;
83840;SDS011;73868;52.172;10.668;2024-03-08T00:30:59;33.00;;;21.47;;
83840;SDS011;73868;52.172;10.668;2024-03-08T00:33:25;34.67;;;21.97;;
83840;SDS011;73868;52.172;10.668;2024-03-08T00:35:52;32.43;;;21.73;;
83840;SDS011;73868;52.172;10.668;2024-03-08T00:38:18;34.33;;;21.47;;
83840;SDS011;73868;52.172;10.668;2024-03-08T00:40:44;33.13;;;20.77;;
83840;SDS011;73868;52.172;10.668;2024-03-08T00:43:10;34.10;;;21.27;;
83840;SDS011;73868;52.172;10.668;2024-03-08T00:45:35;33.97;;;21.30;;
83840;SDS011;73868;52.172;10.668;2024-03-08T00:48:02;31.97;;;20.70;;
83840;SDS011;73868;52.172;10.668;2024-03-08T00:50:28;32.17;;;20.40;;
83840;SDS011;73868;52.172;10.668;2024-03-08T00:52:54;33.40;;;22.33;;
83840;SDS011;73868;52.172;10.668;2024-03-08T00:55:19;35.50;;;22.53;;
83840;SDS011;73868;52.172;10.668;2024-03-08T00:57:45;34.43;;;21.83;;
83840;SDS011;73868;52.172;10.668;2024-03-08T01:00:11;34.80;;;21.57;;
83840;SDS011;73868;52.172;10.668;2024-03-08T01:02:37;35.37;;;22.37;;
83840;SDS011;73868;52.172;10.668;2024-03-08T01:05:04;34.50;;;22.63;;
83840;SDS011;73868;52.172;10.668;2024-03-08T01:07:32;33.13;;;20.43;;
83840;SDS011;73868;52.172;10.668;2024-03-08T01:09:57;35.07;;;21.83;;
83840;SDS011;73868;52.172;10.668;2024-03-08T01:12:23;31.93;;;21.57;;
83840;SDS011;73868;52.172;10.668;2024-03-08T01:14:49;36.90;;;23.03;;
83840;SDS011;73868;52.172;10.668;2024-03-08T01:17:14;38.27;;;23.40;;
83840;SDS011;73868;52.172;10.668;2024-03-08T01:19:40;33.90;;;22.23;;
83840;SDS011;73868;52.172;10.668;2024-03-08T01:22:05;34.77;;;22.13;;
83840;SDS011;73868;52.172;10.668;2024-03-08T01:24:31;35.60;;;21.70;;
83840;SDS011;73868;52.172;10.668;2024-03-08T01:26:56;35.27;;;22.80;;
83840;SDS011;73868;52.172;10.668;2024-03-08T01:29:22;35.17;;;22.90;;
83840;SDS011;73868;52.172;10.668;2024-03-08T01:31:48;36.83;;;22.83;;
83840;SDS011;73868;52.172;10.668;2024-03-08T01:34:13;34.70;;;22.27;;
83840;SDS011;73868;52.172;10.668;2024-03-08T01:36:39;38.13;;;23.20;;
83840;SDS011;73868;52.172;10.668;2024-03-08T01:39:04;37.03;;;23.33;;
83840;SDS011;73868;52.172;10.668;2024-03-08T01:41:33;41.17;;;23.93;;
83840;SDS011;73868;52.172;10.668;2024-03-08T01:43:59;39.53;;;23.27;;
83840;SDS011;73868;52.172;10.668;2024-03-08T01:46:24;37.23;;;23.60;;
83840;SDS011;73868;52.172;10.668;2024-03-08T01:48:53;38.60;;;23.67;;
83840;SDS011;73868;52.172;10.668;2024-03-08T01:51:19;36.83;;;22.60;;
83840;SDS011;73868;52.172;10.668;2024-03-08T01:53:46;36.30;;;23.07;;
83840;SDS011;73868;52.172;10.668;2024-03-08T01:56:12;37.27;;;24.40;;
83840;SDS011;73868;52.172;10.668;2024-03-08T01:58:40;37.97;;;24.03;;
83840;SDS011;73868;52.172;10.668;2024-03-08T02:01:08;41.67;;;24.57;;
83840;SDS011;73868;52.172;10.668;2024-03-08T02:03:36;35.20;;;23.33;;
83840;SDS011;73868;52.172;10.668;2024-03-08T02:06:01;38.27;;;24.23;;
83840;SDS011;73868;52.172;10.668;2024-03-08T02:08:27;41.27;;;25.60;;
83840;SDS011;73868;52.172;10.668;2024-03-08T02:10:53;34.17;;;22.70;;
83840;SDS011;73868;52.172;10.668;2024-03-08T02:13:18;43.43;;;26.17;;
83840;SDS011;73868;52.172;10.668;2024-03-08T02:15:57;37.47;;;23.93;;
83840;SDS011;73868;52.172;10.668;2024-03-08T02:18:24;35.87;;;23.47;;
83840;SDS011;73868;52.172;10.668;2024-03-08T02:20:51;39.20;;;24.73;;
83840;SDS011;73868;52.172;10.668;2024-03-08T02:23:17;39.90;;;24.67;;
83840;SDS011;73868;52.172;10.668;2024-03-08T02:25:47;37.83;;;24.80;;
83840;SDS011;73868;52.172;10.668;2024-03-08T02:28:13;38.50;;;25.57;;
83840;SDS011;73868;52.172;10.668;2024-03-08T02:30:39;43.57;;;27.43;;
83840;SDS011;73868;52.172;10.668;2024-03-08T02:33:05;42.57;;;26.13;;
83840;SDS011;73868;52.172;10.668;2024-03-08T02:35:32;43.80;;;26.77;;
83840;SDS011;73868;52.172;10.668;2024-03-08T02:37:58;38.77;;;26.50;;
83840;SDS011;73868;52.172;10.668;2024-03-08T02:40:24;39.30;;;26.60;;
83840;SDS011;73868;52.172;10.668;2024-03-08T02:42:49;40.07;;;27.83;;
83840;SDS011;73868;52.172;10.668;2024-03-08T02:45:15;39.67;;;26.90;;
83840;SDS011;73868;52.172;10.668;2024-03-08T02:47:40;39.57;;;26.20;;
83840;SDS011;73868;52.172;10.668;2024-03-08T02:50:06;39.00;;;27.13;;
83840;SDS011;73868;52.172;10.668;2024-03-08T02:52:35;42.80;;;26.10;;
83840;SDS011;73868;52.172;10.668;2024-03-08T02:55:01;39.33;;;26.57;;
83840;SDS011;73868;52.172;10.668;2024-03-08T02:57:27;40.87;;;25.90;;
83840;SDS011;73868;52.172;10.668;2024-03-08T02:59:55;41.87;;;26.53;;
83840;SDS011;73868;52.172;10.668;2024-03-08T03:02:21;38.60;;;25.47;;
83840;SDS011;73868;52.172;10.668;2024-03-08T03:04:48;40.97;;;26.23;;
83840;SDS011;73868;52.172;10.668;2024-03-08T03:07:14;37.50;;;24.70;;
83840;SDS011;73868;52.172;10.668;2024-03-08T03:09:39;38.37;;;24.90;;
83840;SDS011;73868;52.172;10.668;2024-03-08T03:12:05;38.50;;;25.23;;
83840;SDS011;73868;52.172;10.668;2024-03-08T03:14:34;34.63;;;24.13;;
83840;SDS011;73868;52.172;10.668;2024-03-08T03:17:03;33.10;;;23.53;;
83840;SDS011;73868;52.172;10.668;2024-03-08T03:19:29;37.37;;;24.37;;
83840;SDS011;73868;52.172;10.668;2024-03-08T03:21:55;34.60;;;23.07;;
83840;SDS011;73868;52.172;10.668;2024-03-08T03:24:20;38.13;;;23.67;;
83840;SDS011;73868;52.172;10.668;2024-03-08T03:26:46;37.30;;;24.70;;
83840;SDS011;73868;52.172;10.668;2024-03-08T03:29:13;39.93;;;23.97;;
83840;SDS011;73868;52.172;10.668;2024-03-08T03:31:40;34.83;;;23.93;;
83840;SDS011;73868;52.172;10.668;2024-03-08T03:34:06;33.90;;;23.53;;
83840;SDS011;73868;52.172;10.668;2024-03-08T03:36:33;33.70;;;23.23;;
83840;SDS011;73868;52.172;10.668;2024-03-08T03:39:00;35.00;;;23.43;;
83840;SDS011;73868;52.172;10.668;2024-03-08T03:41:41;34.30;;;23.23;;
83840;SDS011;73868;52.172;10.668;2024-03-08T03:44:07;34.53;;;23.43;;
83840;SDS011;73868;52.172;10.668;2024-03-08T03:46:33;32.13;;;22.60;;
83840;SDS011;73868;52.172;10.668;2024-03-08T03:48:58;34.47;;;23.83;;
83840;SDS011;73868;52.172;10.668;2024-03-08T03:51:24;35.53;;;24.70;;
83840;SDS011;73868;52.172;10.668;2024-03-08T03:53:50;35.37;;;24.77;;
83840;SDS011;73868;52.172;10.668;2024-03-08T03:56:16;37.33;;;25.00;;
83840;SDS011;73868;52.172;10.668;2024-03-08T03:58:41;36.97;;;25.60;;
83840;SDS011;73868;52.172;10.668;2024-03-08T04:01:07;39.57;;;24.47;;
83840;SDS011;73868;52.172;10.668;2024-03-08T04:03:34;38.80;;;25.40;;
83840;SDS011;73868;52.172;10.668;2024-03-08T04:06:00;39.00;;;25.30;;
83840;SDS011;73868;52.172;10.668;2024-03-08T04:08:26;35.20;;;24.30;;
83840;SDS011;73868;52.172;10.668;2024-03-08T04:10:52;37.67;;;25.00;;
83840;SDS011;73868;52.172;10.668;2024-03-08T04:13:18;36.63;;;25.50;;
83840;SDS011;73868;52.172;10.668;2024-03-08T04:15:45;35.20;;;24.03;;
83840;SDS011;73868;52.172;10.668;2024-03-08T04:18:13;36.60;;;25.27;;
83840;SDS011;73868;52.172;10.668;2024-03-08T04:20:39;41.47;;;25.67;;
83840;SDS011;73868;52.172;10.668;2024-03-08T04:23:05;40.73;;;25.60;;
83840;SDS011;73868;52.172;10.668;2024-03-08T04:25:31;39.13;;;26.40;;
83840;SDS011;73868;52.172;10.668;2024-03-08T04:27:57;41.93;;;26.77;;
83840;SDS011;73868;52.172;10.668;2024-03-08T04:30:22;39.20;;;26.13;;
83840;SDS011;73868;52.172;10.668;2024-03-08T04:32:49;38.83;;;26.40;;
83840;SDS011;73868;52.172;10.668;2024-03-08T04:35:14;41.30;;;26.17;;
83840;SDS011;73868;52.172;10.668;2024-03-08T04:37:40;41.30;;;27.47;;
83840;SDS011;73868;52.172;10.668;2024-03-08T04:40:06;40.37;;;27.77;;
83840;SDS011;73868;52.172;10.668;2024-03-08T04:42:32;40.27;;;26.70;;
83840;SDS011;73868;52.172;10.668;2024-03-08T04:44:58;38.60;;;25.57;;
83840;SDS011;73868;52.172;10.668;2024-03-08T04:47:24;38.73;;;26.47;;
83840;SDS011;73868;52.172;10.668;2024-03-08T04:49:50;38.00;;;25.40;;
83840;SDS011;73868;52.172;10.668;2024-03-08T04:52:15;40.83;;;26.87;;
83840;SDS011;73868;52.172;10.668;2024-03-08T04:54:41;40.40;;;27.07;;
83840;SDS011;73868;52.172;10.668;2024-03-08T04:57:07;40.40;;;25.10;;
83840;SDS011;73868;52.172;10.668;2024-03-08T04:59:33;38.70;;;26.77;;
83840;SDS011;73868;52.172;10.668;2024-03-08T05:01:58;38.37;;;25.33;;
83840;SDS011;73868;52.172;10.668;2024-03-08T05:04:24;37.03;;;25.20;;
83840;SDS011;73868;52.172;10.668;2024-03-08T05:06:50;34.90;;;24.00;;
83840;SDS011;73868;52.172;10.668;2024-03-08T05:09:15;35.60;;;25.03;;
83840;SDS011;73868;52.172;10.668;2024-03-08T05:11:42;34.93;;;23.43;;
83840;SDS011;73868;52.172;10.668;2024-03-08T05:14:09;36.67;;;24.03;;
83840;SDS011;73868;52.172;10.668;2024-03-08T05:16:41;36.67;;;24.57;;
83840;SDS011;73868;52.172;10.668;2024-03-08T05:19:08;38.43;;;24.70;;
83840;SDS011;73868;52.172;10.668;2024-03-08T05:21:33;33.03;;;22.53;;
83840;SDS011;73868;52.172;10.668;2024-03-08T05:23:59;34.90;;;24.50;;
83840;SDS011;73868;52.172;10.668;2024-03-08T05:26:24;32.93;;;23.73;;
83840;SDS011;73868;52.172;10.668;2024-03-08T05:28:50;34.97;;;23.50;;
83840;SDS011;73868;52.172;10.668;2024-03-08T05:31:21;36.40;;;23.97;;
83840;SDS011;73868;52.172;10.668;2024-03-08T05:33:50;33.27;;;23.50;;
83840;SDS011;73868;52.172;10.668;2024-03-08T05:36:15;35.30;;;23.93;;
83840;SDS011;73868;52.172;10.668;2024-03-08T05:38:44;36.40;;;23.33;;
83840;SDS011;73868;52.172;10.668;2024-03-08T05:41:10;35.47;;;23.73;;
83840;SDS011;73868;52.172;10.668;2024-03-08T05:43:40;37.60;;;23.87;;
83840;SDS011;73868;52.172;10.668;2024-03-08T05:46:06;35.13;;;23.80;;
83840;SDS011;73868;52.172;10.668;2024-03-08T05:48:32;35.63;;;24.33;;
83840;SDS011;73868;52.172;10.668;2024-03-08T05:50:58;33.70;;;23.23;;
83840;SDS011;73868;52.172;10.668;2024-03-08T05:53:24;34.73;;;23.60;;
83840;SDS011;73868;52.172;10.668;2024-03-08T05:55:50;35.50;;;23.53;;
83840;SDS011;73868;52.172;10.668;2024-03-08T05:58:15;36.00;;;23.73;;
83840;SDS011;73868;52.172;10.668;2024-03-08T06:00:41;34.43;;;24.17;;
83840;SDS011;73868;52.172;10.668;2024-03-08T06:03:06;37.27;;;23.80;;
83840;SDS011;73868;52.172;10.668;2024-03-08T06:05:32;36.07;;;23.90;;
83840;SDS011;73868;52.172;10.668;2024-03-08T06:07:58;33.53;;;23.07;;
83840;SDS011;73868;52.172;10.668;2024-03-08T06:10:24;33.67;;;24.00;;
83840;SDS011;73868;52.172;10.668;2024-03-08T06:12:49;33.10;;;22.73;;
83840;SDS011;73868;52.172;10.668;2024-03-08T06:15:16;36.87;;;23.97;;
83840;SDS011;73868;52.172;10.668;2024-03-08T06:17:42;35.20;;;23.27;;
83840;SDS011;73868;52.172;10.668;2024-03-08T06:20:07;35.67;;;23.83;;
83840;SDS011;73868;52.172;10.668;2024-03-08T06:22:37;33.83;;;23.87;;
83840;SDS011;73868;52.172;10.668;2024-03-08T06:25:06;34.90;;;23.93;;
83840;SDS011;73868;52.172;10.668;2024-03-08T06:27:33;33.83;;;23.63;;
83840;SDS011;73868;52.172;10.668;2024-03-08T06:29:59;36.67;;;24.47;;
83840;SDS011;73868;52.172;10.668;2024-03-08T06:32:25;35.80;;;24.33;;
83840;SDS011;73868;52.172;10.668;2024-03-08T06:34:50;36.50;;;24.43;;
83840;SDS011;73868;52.172;10.668;2024-03-08T06:37:16;38.40;;;25.13;;
83840;SDS011;73868;52.172;10.668;2024-03-08T06:39:46;36.27;;;24.07;;
83840;SDS011;73868;52.172;10.668;2024-03-08T06:42:16;38.87;;;26.17;;
83840;SDS011;73868;52.172;10.668;2024-03-08T06:44:42;36.10;;;25.00;;
83840;SDS011;73868;52.172;10.668;2024-03-08T06:47:14;40.03;;;25.40;;
83840;SDS011;73868;52.172;10.668;2024-03-08T06:49:41;38.23;;;25.50;;
83840;SDS011;73868;52.172;10.668;2024-03-08T06:52:10;39.00;;;25.47;;
83840;SDS011;73868;52.172;10.668;2024-03-08T06:54:35;36.50;;;25.30;;
83840;SDS011;73868;52.172;10.668;2024-03-08T06:57:02;35.27;;;25.77;;
83840;SDS011;73868;52.172;10.668;2024-03-08T06:59:28;41.00;;;26.90;;
83840;SDS011;73868;52.172;10.668;2024-03-08T07:01:54;40.23;;;27.40;;
83840;SDS011;73868;52.172;10.668;2024-03-08T07:04:20;36.73;;;26.00;;
83840;SDS011;73868;52.172;10.668;2024-03-08T07:06:46;39.60;;;27.27;;
83840;SDS011;73868;52.172;10.668;2024-03-08T07:09:15;39.13;;;26.30;;
83840;SDS011;73868;52.172;10.668;2024-03-08T07:11:43;39.97;;;27.87;;
83840;SDS011;73868;52.172;10.668;2024-03-08T07:14:09;37.30;;;26.57;;
83840;SDS011;73868;52.172;10.668;2024-03-08T07:16:34;38.40;;;27.67;;
83840;SDS011;73868;52.172;10.668;2024-03-08T07:19:06;36.07;;;25.50;;
83840;SDS011;73868;52.172;10.668;2024-03-08T07:21:32;38.60;;;25.67;;
83840;SDS011;73868;52.172;10.668;2024-03-08T07:23:57;36.77;;;25.13;;
83840;SDS011;73868;52.172;10.668;2024-03-08T07:26:26;35.83;;;25.53;;
83840;SDS011;73868;52.172;10.668;2024-03-08T07:28:52;34.53;;;25.03;;
83840;SDS011;73868;52.172;10.668;2024-03-08T07:31:19;35.40;;;24.97;;
83840;SDS011;73868;52.172;10.668;2024-03-08T07:34:00;34.17;;;24.33;;
83840;SDS011;73868;52.172;10.668;2024-03-08T07:36:25;33.90;;;24.50;;
83840;SDS011;73868;52.172;10.668;2024-03-08T07:38:51;32.70;;;24.10;;
83840;SDS011;73868;52.172;10.668;2024-03-08T07:41:16;33.90;;;24.47;;
83840;SDS011;73868;52.172;10.668;2024-03-08T07:43:42;32.80;;;24.33;;
83840;SDS011;73868;52.172;10.668;2024-03-08T07:46:09;35.50;;;25.40;;
83840;SDS011;73868;52.172;10.668;2024-03-08T07:48:35;31.93;;;23.97;;
83840;SDS011;73868;52.172;10.668;2024-03-08T07:51:01;30.00;;;23.20;;
83840;SDS011;73868;52.172;10.668;2024-03-08T07:53:30;33.10;;;23.90;;
83840;SDS011;73868;52.172;10.668;2024-03-08T07:55:56;36.33;;;24.70;;
83840;SDS011;73868;52.172;10.668;2024-03-08T07:58:21;33.53;;;23.97;;
83840;SDS011;73868;52.172;10.668;2024-03-08T08:00:48;36.87;;;25.10;;
83840;SDS011;73868;52.172;10.668;2024-03-08T08:03:14;35.67;;;25.53;;
83840;SDS011;73868;52.172;10.668;2024-03-08T08:05:40;32.03;;;24.47;;
83840;SDS011;73868;52.172;10.668;2024-03-08T08:08:07;32.77;;;24.43;;
83840;SDS011;73868;52.172;10.668;2024-03-08T08:10:35;30.07;;;23.07;;
83840;SDS011;73868;52.172;10.668;2024-03-08T08:13:02;31.57;;;22.77;;
83840;SDS011;73868;52.172;10.668;2024-03-08T08:15:29;31.43;;;24.23;;
83840;SDS011;73868;52.172;10.668;2024-03-08T08:17:55;31.93;;;24.10;;
83840;SDS011;73868;52.172;10.668;2024-03-08T08:20:20;30.93;;;22.47;;
83840;SDS011;73868;52.172;10.668;2024-03-08T08:22:46;31.93;;;22.97;;
83840;SDS011;73868;52.172;10.668;2024-03-08T08:25:13;32.27;;;23.77;;
83840;SDS011;73868;52.172;10.668;2024-03-08T08:27:45;33.37;;;24.47;;
83840;SDS011;73868;52.172;10.668;2024-03-08T08:30:11;33.23;;;24.03;;
83840;SDS011;73868;52.172;10.668;2024-03-08T08:32:37;32.73;;;25.03;;
83840;SDS011;73868;52.172;10.668;2024-03-08T08:35:09;35.37;;;25.13;;
83840;SDS011;73868;52.172;10.668;2024-03-08T08:37:38;47.43;;;30.13;;
83840;SDS011;73868;52.172;10.668;2024-03-08T08:40:05;31.97;;;25.13;;
83840;SDS011;73868;52.172;10.668;2024-03-08T08:42:35;31.77;;;23.73;;
83840;SDS011;73868;52.172;10.668;2024-03-08T08:45:01;31.13;;;23.87;;
83840;SDS011;73868;52.172;10.668;2024-03-08T08:47:27;30.60;;;23.93;;
83840;SDS011;73868;52.172;10.668;2024-03-08T08:49:53;30.80;;;24.07;;
83840;SDS011;73868;52.172;10.668;2024-03-08T08:52:19;30.10;;;23.17;;
83840;SDS011;73868;52.172;10.668;2024-03-08T08:54:45;29.47;;;23.97;;
83840;SDS011;73868;52.172;10.668;2024-03-08T08:57:10;30.10;;;24.23;;
83840;SDS011;73868;52.172;10.668;2024-03-08T08:59:36;33.03;;;23.77;;
83840;SDS011;73868;52.172;10.668;2024-03-08T09:02:04;32.97;;;24.60;;
83840;SDS011;73868;52.172;10.668;2024-03-08T09:04:31;30.90;;;24.23;;
83840;SDS011;73868;52.172;10.668;2024-03-08T09:06:57;34.53;;;25.17;;
83840;SDS011;73868;52.172;10.668;2024-03-08T09:09:22;30.10;;;25.47;;
83840;SDS011;73868;52.172;10.668;2024-03-08T09:11:50;33.53;;;25.57;;
83840;SDS011;73868;52.172;10.668;2024-03-08T09:14:16;32.57;;;24.50;;
83840;SDS011;73868;52.172;10.668;2024-03-08T09:16:42;29.50;;;22.87;;
83840;SDS011;73868;52.172;10.668;2024-03-08T09:19:07;29.90;;;24.00;;
83840;SDS011;73868;52.172;10.668;2024-03-08T09:21:35;32.03;;;24.87;;
83840;SDS011;73868;52.172;10.668;2024-03-08T09:24:01;34.33;;;25.57;;
83840;SDS011;73868;52.172;10.668;2024-03-08T09:26:27;30.97;;;24.07;;
83840;SDS011;73868;52.172;10.668;2024-03-08T09:28:52;34.10;;;25.23;;
83840;SDS011;73868;52.172;10.668;2024-03-08T09:31:20;34.20;;;25.50;;
83840;SDS011;73868;52.172;10.668;2024-03-08T09:33:48;36.43;;;27.00;;
83840;SDS011;73868;52.172;10.668;2024-03-08T09:36:15;32.80;;;25.33;;
83840;SDS011;73868;52.172;10.668;2024-03-08T09:38:41;33.80;;;26.33;;
83840;SDS011;73868;52.172;10.668;2024-03-08T09:41:06;34.87;;;25.53;;
83840;SDS011;73868;52.172;10.668;2024-03-08T09:43:34;32.50;;;25.33;;
83840;SDS011;73868;52.172;10.668;2024-03-08T09:46:00;33.97;;;25.33;;
83840;SDS011;73868;52.172;10.668;2024-03-08T09:48:26;34.93;;;26.47;;
83840;SDS011;73868;52.172;10.668;2024-03-08T09:50:52;40.40;;;26.50;;
83840;SDS011;73868;52.172;10.668;2024-03-08T09:53:19;34.23;;;26.83;;
83840;SDS011;73868;52.172;10.668;2024-03-08T09:55:47;36.07;;;25.80;;
83840;SDS011;73868;52.172;10.668;2024-03-08T09:58:15;34.47;;;26.30;;
83840;SDS011;73868;52.172;10.668;2024-03-08T10:00:46;35.20;;;26.83;;
83840;SDS011;73868;52.172;10.668;2024-03-08T10:03:12;36.60;;;26.90;;
83840;SDS011;73868;52.172;10.668;2024-03-08T10:05:39;36.47;;;26.27;;
83840;SDS011;73868;52.172;10.668;2024-03-08T10:08:06;31.67;;;25.23;;
83840;SDS011;73868;52.172;10.668;2024-03-08T10:10:35;31.60;;;24.50;;
83840;SDS011;73868;52.172;10.668;2024-03-08T10:13:05;28.63;;;23.23;;
83840;SDS011;73868;52.172;10.668;2024-03-08T10:15:31;34.27;;;26.67;;
83840;SDS011;73868;52.172;10.668;2024-03-08T10:17:58;32.17;;;25.17;;
83840;SDS011;73868;52.172;10.668;2024-03-08T10:20:24;36.03;;;26.50;;
83840;SDS011;73868;52.172;10.668;2024-03-08T10:22:51;31.37;;;24.60;;
83840;SDS011;73868;52.172;10.668;2024-03-08T10:25:18;30.57;;;23.20;;
83840;SDS011;73868;52.172;10.668;2024-03-08T10:27:44;32.87;;;24.70;;
83840;SDS011;73868;52.172;10.668;2024-03-08T10:30:10;31.27;;;24.87;;
83840;SDS011;73868;52.172;10.668;2024-03-08T10:32:39;29.23;;;23.80;;
83840;SDS011;73868;52.172;10.668;2024-03-08T10:35:06;31.63;;;24.03;;
83840;SDS011;73868;52.172;10.668;2024-03-08T10:37:33;28.80;;;23.07;;
83840;SDS011;73868;52.172;10.668;2024-03-08T10:40:09;33.60;;;23.07;;
83840;SDS011;73868;52.172;10.668;2024-03-08T10:42:46;32.23;;;23.93;;
83840;SDS011;73868;52.172;10.668;2024-03-08T10:45:35;31.90;;;24.33;;
83840;SDS011;73868;52.172;10.668;2024-03-08T10:50:48;28.07;;;21.87;;
83840;SDS011;73868;52.172;10.668;2024-03-08T10:53:15;30.73;;;24.00;;
83840;SDS011;73868;52.172;10.668;2024-03-08T10:55:43;27.20;;;22.07;;
83840;SDS011;73868;52.172;10.668;2024-03-08T10:58:10;30.10;;;22.73;;
83840;SDS011;73868;52.172;10.668;2024-03-08T11:00:35;30.57;;;23.77;;
83840;SDS011;73868;52.172;10.668;2024-03-08T11:03:02;33.43;;;24.63;;
83840;SDS011;73868;52.172;10.668;2024-03-08T11:05:32;29.07;;;22.77;;
83840;SDS011;73868;52.172;10.668;2024-03-08T11:10:53;32.10;;;23.23;;
83840;SDS011;73868;52.172;10.668;2024-03-08T11:13:36;29.57;;;22.93;;
83840;SDS011;73868;52.172;10.668;2024-03-08T11:16:13;28.97;;;22.27;;
83840;SDS011;73868;52.172;10.668;2024-03-08T11:18:54;27.03;;;22.33;;
83840;SDS011;73868;52.172;10.668;2024-03-08T11:21:20;27.57;;;21.07;;
83840;SDS011;73868;52.172;10.668;2024-03-08T11:24:08;27.13;;;19.87;;
83840;SDS011;73868;52.172;10.668;2024-03-08T11:26:38;27.00;;;20.70;;
83840;SDS011;73868;52.172;10.668;2024-03-08T11:31:52;25.37;;;21.13;;
83840;SDS011;73868;52.172;10.668;2024-03-08T11:34:28;26.37;;;20.70;;
83840;SDS011;73868;52.172;10.668;2024-03-08T11:36:55;24.00;;;20.20;;
83840;SDS011;73868;52.172;10.668;2024-03-08T11:39:21;23.63;;;20.10;;
83840;SDS011;73868;52.172;10.668;2024-03-08T11:41:49;25.67;;;21.27;;
83840;SDS011;73868;52.172;10.668;2024-03-08T11:44:14;25.00;;;19.67;;
83840;SDS011;73868;52.172;10.668;2024-03-08T11:46:42;25.10;;;19.93;;
83840;SDS011;73868;52.172;10.668;2024-03-08T11:49:11;24.30;;;19.80;;
83840;SDS011;73868;52.172;10.668;2024-03-08T11:51:38;26.90;;;20.33;;
83840;SDS011;73868;52.172;10.668;2024-03-08T11:54:03;22.70;;;19.80;;
83840;SDS011;73868;52.172;10.668;2024-03-08T11:56:31;25.85;;;21.05;;
83840;SDS011;73868;52.172;10.668;2024-03-08T11:58:57;25.10;;;19.73;;
83840;SDS011;73868;52.172;10.668;2024-03-08T12:01:23;24.07;;;19.27;;
83840;SDS011;73868;52.172;10.668;2024-03-08T12:03:52;22.08;;;18.75;;
83840;SDS011;73868;52.172;10.668;2024-03-08T12:06:19;23.67;;;19.02;;
83840;SDS011;73868;52.172;10.668;2024-03-08T12:08:45;23.57;;;19.80;;
83840;SDS011;73868;52.172;10.668;2024-03-08T12:11:16;21.97;;;18.27;;
83840;SDS011;73868;52.172;10.668;2024-03-08T12:13:47;23.17;;;18.20;;
83840;SDS011;73868;52.172;10.668;2024-03-08T12:16:15;22.85;;;18.23;;
83840;SDS011;73868;52.172;10.668;2024-03-08T12:18:46;23.40;;;18.33;;
83840;SDS011;73868;52.172;10.668;2024-03-08T12:21:13;19.73;;;17.37;;
83840;SDS011;73868;52.172;10.668;2024-03-08T12:23:42;20.90;;;16.88;;
83840;SDS011;73868;52.172;10.668;2024-03-08T12:26:12;24.42;;;18.45;;
83840;SDS011;73868;52.172;10.668;2024-03-08T12:28:39;20.67;;;16.40;;
83840;SDS011;73868;52.172;10.668;2024-03-08T12:31:07;20.00;;;17.50;;
83840;SDS011;73868;52.172;10.668;2024-03-08T12:33:51;20.93;;;16.83;;
83840;SDS011;73868;52.172;10.668;2024-03-08T12:36:18;22.80;;;17.73;;
83840;SDS011;73868;52.172;10.668;2024-03-08T12:38:45;19.20;;;16.42;;
83840;SDS011;73868;52.172;10.668;2024-03-08T12:41:14;19.77;;;17.23;;
83840;SDS011;73868;52.172;10.668;2024-03-08T12:43:40;22.13;;;16.60;;
83840;SDS011;73868;52.172;10.668;2024-03-08T12:46:06;17.48;;;15.25;;
83840;SDS011;73868;52.172;10.668;2024-03-08T12:48:36;20.58;;;16.33;;
83840;SDS011;73868;52.172;10.668;2024-03-08T12:51:05;19.80;;;17.40;;
83840;SDS011;73868;52.172;10.668;2024-03-08T12:53:32;19.05;;;16.83;;
83840;SDS011;73868;52.172;10.668;2024-03-08T12:55:58;19.55;;;17.45;;
83840;SDS011;73868;52.172;10.668;2024-03-08T12:58:24;20.98;;;16.70;;
83840;SDS011;73868;52.172;10.668;2024-03-08T13:00:51;19.65;;;16.25;;
83840;SDS011;73868;52.172;10.668;2024-03-08T13:03:16;18.98;;;15.88;;
83840;SDS011;73868;52.172;10.668;2024-03-08T13:05:42;18.38;;;16.05;;
83840;SDS011;73868;52.172;10.668;2024-03-08T13:08:08;21.27;;;16.55;;
83840;SDS011;73868;52.172;10.668;2024-03-08T13:10:40;19.52;;;16.88;;
83840;SDS011;73868;52.172;10.668;2024-03-08T13:13:12;17.80;;;15.52;;
83840;SDS011;73868;52.172;10.668;2024-03-08T13:15:42;18.67;;;14.75;;
83840;SDS011;73868;52.172;10.668;2024-03-08T13:18:08;17.95;;;16.05;;
83840;SDS011;73868;52.172;10.668;2024-03-08T13:20:35;21.50;;;16.02;;
83840;SDS011;73868;52.172;10.668;2024-03-08T13:23:03;18.23;;;15.98;;
83840;SDS011;73868;52.172;10.668;2024-03-08T13:25:30;19.50;;;16.08;;
83840;SDS011;73868;52.172;10.668;2024-03-08T13:27:58;21.52;;;16.80;;
83840;SDS011;73868;52.172;10.668;2024-03-08T13:30:25;21.27;;;16.98;;
83840;SDS011;73868;52.172;10.668;2024-03-08T13:32:52;20.05;;;16.75;;
83840;SDS011;73868;52.172;10.668;2024-03-08T13:35:18;19.58;;;16.02;;
83840;SDS011;73868;52.172;10.668;2024-03-08T13:37:49;20.30;;;17.17;;
83840;SDS011;73868;52.172;10.668;2024-03-08T13:40:16;21.35;;;16.95;;
83840;SDS011;73868;52.172;10.668;2024-03-08T13:42:44;19.60;;;16.73;;
83840;SDS011;73868;52.172;10.668;2024-03-08T13:45:16;21.15;;;18.05;;
83840;SDS011;73868;52.172;10.668;2024-03-08T13:47:48;21.35;;;17.48;;
83840;SDS011;73868;52.172;10.668;2024-03-08T13:50:18;18.98;;;16.75;;
83840;SDS011;73868;52.172;10.668;2024-03-08T13:52:48;18.45;;;16.35;;
83840;SDS011;73868;52.172;10.668;2024-03-08T13:55:20;19.95;;;16.98;;
83840;SDS011;73868;52.172;10.668;2024-03-08T13:57:49;19.35;;;16.15;;
83840;SDS011;73868;52.172;10.668;2024-03-08T14:00:18;20.52;;;17.23;;
83840;SDS011;73868;52.172;10.668;2024-03-08T14:02:48;19.83;;;16.23;;
83840;SDS011;73868;52.172;10.668;2024-03-08T14:05:14;19.15;;;15.98;;
83840;SDS011;73868;52.172;10.668;2024-03-08T14:07:41;18.52;;;16.15;;
83840;SDS011;73868;52.172;10.668;2024-03-08T14:10:06;20.55;;;16.92;;
83840;SDS011;73868;52.172;10.668;2024-03-08T14:12:35;21.20;;;17.27;;
83840;SDS011;73868;52.172;10.668;2024-03-08T14:15:03;19.88;;;17.00;;
83840;SDS011;73868;52.172;10.668;2024-03-08T14:17:31;18.65;;;16.25;;